Time;durP1;ratioP1;P1;durP2;ratioP2;P2;SDS_P1;SDS_P2;PMS_P1;PMS_P2;Temp;Humidity;BMP_temperature;BMP_pressure;BME280_temperature;BME280_humidity;BME280_pressure;Samples;Min_cycle;Max_cycle;Signal;HPM_P1;HPM_P2
2021/06/19 00:00:40;;;;;;;20.23;5.55;;;25.20;60.50;;;;;;5074349;28;20534;-47
2021/06/19 00:03:06;;;;;;;13.75;4.88;;;25.20;60.80;;;;;;5074229;28;20475;-48
2021/06/19 00:05:32;;;;;;;13.15;5.40;;;25.20;61.00;;;;;;5075480;28;20028;-47
2021/06/19 00:07:59;;;;;;;13.80;5.03;;;25.10;61.10;;;;;;5075465;28;20406;-52
2021/06/19 00:10:25;;;;;;;19.60;5.07;;;25.00;61.50;;;;;;5074159;28;20025;-48
2021/06/19 00:12:52;;;;;;;18.33;6.07;;;25.00;61.70;;;;;;5075756;28;20028;-48
2021/06/19 00:15:21;;;;;;;15.57;4.55;;;24.90;62.30;;;;;;5075651;28;20021;-49
2021/06/19 00:17:47;;;;;;;14.02;5.88;;;25.00;62.00;;;;;;5074111;28;20032;-50
2021/06/19 00:20:22;;;;;;;15.77;6.60;;;24.90;62.40;;;;;;5075019;28;20047;-46
2021/06/19 00:22:48;;;;;;;16.80;4.97;;;24.80;62.70;;;;;;5075256;28;20375;-47
2021/06/19 00:25:16;;;;;;;11.90;4.75;;;24.70;63.50;;;;;;5075199;28;20027;-48
2021/06/19 00:27:42;;;;;;;11.25;5.57;;;24.60;63.90;;;;;;5075103;28;20017;-52
2021/06/19 00:30:10;;;;;;;9.60;4.95;;;24.50;64.50;;;;;;5075218;28;20361;-52
2021/06/19 00:32:36;;;;;;;13.65;5.43;;;24.50;64.70;;;;;;5075453;28;20027;-48
2021/06/19 00:35:05;;;;;;;14.13;5.40;;;24.40;65.10;;;;;;5075399;28;20094;-48
2021/06/19 00:37:31;;;;;;;10.57;6.75;;;24.40;65.10;;;;;;5075248;28;20053;-47
2021/06/19 00:39:58;;;;;;;19.08;6.65;;;24.40;65.10;;;;;;5075181;28;20060;-51
2021/06/19 00:42:25;;;;;;;11.30;5.65;;;24.50;65.10;;;;;;5056859;28;20071;-48
2021/06/19 00:44:51;;;;;;;15.95;5.55;;;24.50;65.30;;;;;;5074723;28;20082;-50
2021/06/19 00:47:16;;;;;;;15.18;5.80;;;24.40;65.50;;;;;;5074719;28;20028;-47
2021/06/19 00:49:43;;;;;;;12.57;6.63;;;24.30;66.10;;;;;;5073428;28;20537;-47
2021/06/19 00:52:08;;;;;;;14.35;5.78;;;24.30;66.20;;;;;;5074966;28;20069;-47
2021/06/19 00:54:34;;;;;;;14.30;5.15;;;24.20;66.80;;;;;;5073425;28;20025;-50
2021/06/19 00:57:01;;;;;;;13.32;5.43;;;24.10;67.50;;;;;;5074786;28;20024;-48
2021/06/19 00:59:28;;;;;;;12.73;6.57;;;24.10;67.50;;;;;;5074686;28;20024;-50
2021/06/19 01:01:54;;;;;;;7.72;5.55;;;24.00;67.60;;;;;;5072906;28;20029;-48
2021/06/19 01:04:20;;;;;;;8.00;5.72;;;24.10;67.40;;;;;;5073629;28;20405;-49
2021/06/19 01:06:46;;;;;;;17.80;5.45;;;24.00;67.40;;;;;;5074268;28;20146;-49
2021/06/19 01:09:12;;;;;;;12.45;6.82;;;23.90;67.90;;;;;;5073958;28;20103;-46
2021/06/19 01:11:39;;;;;;;14.73;5.85;;;24.00;67.80;;;;;;5074828;28;20032;-47
2021/06/19 01:14:06;;;;;;;8.80;4.68;;;23.90;66.90;;;;;;5073933;28;20101;-46
2021/06/19 01:16:33;;;;;;;7.47;4.63;;;24.00;67.00;;;;;;5074198;28;20361;-46
2021/06/19 01:18:59;;;;;;;9.43;4.78;;;23.90;66.80;;;;;;5073886;28;20483;-47
2021/06/19 01:21:29;;;;;;;14.55;6.15;;;23.90;66.80;;;;;;5072399;28;20043;-51
2021/06/19 01:23:55;;;;;;;14.43;4.55;;;23.80;66.70;;;;;;5073803;28;20031;-49
2021/06/19 01:26:23;;;;;;;5.72;4.00;;;23.90;66.50;;;;;;5074503;28;20037;-47
2021/06/19 01:28:50;;;;;;;5.57;3.60;;;23.90;66.10;;;;;;5073955;28;20103;-48
2021/06/19 01:31:17;;;;;;;6.40;3.83;;;23.80;65.50;;;;;;5073694;28;20028;-46
2021/06/19 01:33:45;;;;;;;8.90;3.63;;;23.80;65.10;;;;;;5072261;28;20067;-51
2021/06/19 01:36:12;;;;;;;4.53;2.80;;;23.90;64.20;;;;;;5073972;28;20031;-46
2021/06/19 01:38:39;;;;;;;7.70;3.90;;;23.80;63.10;;;;;;5072486;28;20081;-46
2021/06/19 01:41:11;;;;;;;5.70;2.33;;;23.80;62.70;;;;;;5074238;28;20102;-48
2021/06/19 01:43:37;;;;;;;5.85;2.22;;;23.80;62.40;;;;;;5073834;28;20025;-49
2021/06/19 01:46:02;;;;;;;3.83;1.55;;;23.80;62.10;;;;;;5073860;28;20016;-48
2021/06/19 01:48:28;;;;;;;3.78;2.25;;;23.80;61.70;;;;;;5073554;28;20379;-47
2021/06/19 01:50:54;;;;;;;3.38;1.70;;;23.80;61.60;;;;;;5073925;28;20086;-47
2021/06/19 01:53:19;;;;;;;2.38;1.40;;;23.80;61.50;;;;;;5073628;28;20088;-48
2021/06/19 01:55:45;;;;;;;4.20;1.63;;;23.70;61.50;;;;;;5072283;28;20444;-47
2021/06/19 01:58:11;;;;;;;5.05;1.58;;;23.70;61.60;;;;;;5073770;28;20102;-47
2021/06/19 02:00:37;;;;;;;3.10;1.83;;;23.80;61.60;;;;;;5072113;28;20032;-47
2021/06/19 02:03:07;;;;;;;3.60;2.08;;;23.70;61.60;;;;;;5073706;28;20427;-46
2021/06/19 02:05:32;;;;;;;2.42;1.40;;;23.70;61.90;;;;;;5073452;28;20017;-47
2021/06/19 02:08:01;;;;;;;4.35;1.60;;;23.70;61.90;;;;;;5073425;28;20361;-46
2021/06/19 02:10:29;;;;;;;2.53;1.80;;;23.70;61.90;;;;;;5073314;28;20033;-47
2021/06/19 02:12:56;;;;;;;2.92;2.00;;;23.60;62.00;;;;;;5073619;28;20380;-52
2021/06/19 02:15:23;;;;;;;7.72;2.03;;;23.50;62.00;;;;;;5073160;28;20426;-48
2021/06/19 02:17:48;;;;;;;2.00;1.70;;;23.60;62.00;;;;;;5073568;28;20417;-49
2021/06/19 02:20:16;;;;;;;2.97;1.70;;;23.50;62.10;;;;;;5072915;28;20072;-49
2021/06/19 02:22:42;;;;;;;2.95;2.03;;;23.50;62.30;;;;;;5072014;28;20016;-48
2021/06/19 02:25:11;;;;;;;4.90;1.88;;;23.40;62.60;;;;;;5073223;28;20048;-49
2021/06/19 02:27:50;;;;;;;2.40;1.45;;;23.30;62.60;;;;;;5071930;28;20024;-47
2021/06/19 02:30:17;;;;;;;3.80;1.80;;;23.30;62.80;;;;;;5073535;28;20063;-52
2021/06/19 02:32:43;;;;;;;4.82;2.30;;;23.30;62.90;;;;;;5073442;28;20380;-47
2021/06/19 02:35:09;;;;;;;4.47;1.85;;;23.20;63.10;;;;;;5073153;28;20036;-48
2021/06/19 02:37:35;;;;;;;4.93;1.95;;;23.20;63.30;;;;;;5073467;28;20031;-47
2021/06/19 02:40:00;;;;;;;10.05;2.22;;;23.20;63.40;;;;;;5073119;28;20384;-49
2021/06/19 02:42:26;;;;;;;3.40;2.03;;;23.10;63.80;;;;;;5073150;28;20031;-47
2021/06/19 02:44:52;;;;;;;3.38;2.00;;;23.00;64.00;;;;;;5073121;28;20025;-48
2021/06/19 02:47:17;;;;;;;10.20;1.90;;;23.10;64.10;;;;;;5073052;28;20033;-47
2021/06/19 02:49:43;;;;;;;3.08;2.13;;;23.00;64.30;;;;;;5072996;28;20029;-50
2021/06/19 02:52:09;;;;;;;2.63;1.83;;;23.00;64.50;;;;;;5073235;28;20372;-47
2021/06/19 02:54:40;;;;;;;3.92;2.08;;;23.00;64.60;;;;;;5073287;28;20376;-48
2021/06/19 02:57:08;;;;;;;4.25;2.25;;;22.90;65.00;;;;;;5073465;28;20100;-46
2021/06/19 02:59:33;;;;;;;6.38;2.00;;;22.90;65.20;;;;;;5073028;28;20349;-48
2021/06/19 03:01:59;;;;;;;10.38;2.90;;;22.90;65.30;;;;;;5073410;28;20017;-48
2021/06/19 03:04:24;;;;;;;2.72;1.98;;;22.90;65.60;;;;;;5073417;28;20029;-49
2021/06/19 03:06:50;;;;;;;4.65;1.63;;;22.80;65.90;;;;;;5073077;28;20021;-47
2021/06/19 03:09:16;;;;;;;2.83;1.83;;;22.80;66.00;;;;;;5072794;28;20528;-47
2021/06/19 03:11:41;;;;;;;5.43;2.65;;;22.80;66.00;;;;;;5072841;28;20068;-48
2021/06/19 03:14:07;;;;;;;5.32;2.10;;;22.80;66.20;;;;;;5072773;28;20028;-47
2021/06/19 03:16:35;;;;;;;8.93;2.40;;;22.80;66.30;;;;;;5072833;28;20379;-46
2021/06/19 03:19:01;;;;;;;5.63;2.25;;;22.80;66.10;;;;;;5073043;28;20036;-48
2021/06/19 03:21:27;;;;;;;3.03;1.75;;;22.80;66.30;;;;;;5072281;28;20384;-50
2021/06/19 03:23:52;;;;;;;3.95;2.72;;;22.80;66.30;;;;;;5071459;28;20028;-46
2021/06/19 03:26:18;;;;;;;2.78;1.90;;;22.90;66.00;;;;;;5072591;28;20024;-50
2021/06/19 03:28:43;;;;;;;2.30;1.70;;;22.80;66.30;;;;;;5075095;28;20047;-48
2021/06/19 03:31:09;;;;;;;3.05;1.88;;;22.80;66.40;;;;;;5076179;28;20099;-46
2021/06/19 03:33:35;;;;;;;5.40;2.00;;;22.70;66.90;;;;;;5076225;28;20082;-47
2021/06/19 03:36:00;;;;;;;4.72;2.55;;;22.70;66.70;;;;;;5076658;28;20074;-46
2021/06/19 03:38:26;;;;;;;5.38;2.70;;;22.70;66.90;;;;;;5076068;28;20033;-49
2021/06/19 03:40:51;;;;;;;3.75;2.40;;;22.60;66.90;;;;;;5076344;28;20024;-49
2021/06/19 03:43:17;;;;;;;3.55;2.42;;;22.60;67.10;;;;;;5076278;28;20029;-49
2021/06/19 03:45:43;;;;;;;6.30;2.63;;;22.70;66.90;;;;;;5075993;28;20024;-49
2021/06/19 03:48:08;;;;;;;8.10;2.35;;;22.60;67.10;;;;;;5074802;28;20025;-47
2021/06/19 03:50:35;;;;;;;5.25;1.92;;;22.50;67.60;;;;;;5075446;28;20396;-47
2021/06/19 03:53:01;;;;;;;6.13;2.53;;;22.40;68.00;;;;;;5075846;28;20032;-47
2021/06/19 03:55:28;;;;;;;4.22;1.80;;;22.50;67.60;;;;;;5075641;28;20077;-51
2021/06/19 03:58:00;;;;;;;6.82;2.88;;;22.40;67.90;;;;;;5075597;28;20024;-47
2021/06/19 04:00:27;;;;;;;6.78;2.85;;;22.20;68.40;;;;;;5075402;28;20028;-47
2021/06/19 04:02:53;;;;;;;5.90;2.42;;;22.30;68.20;;;;;;5075764;28;20146;-47
2021/06/19 04:05:19;;;;;;;4.53;2.30;;;22.30;68.20;;;;;;5075640;28;20054;-46
2021/06/19 04:07:45;;;;;;;5.55;3.00;;;22.30;68.10;;;;;;5074188;28;20024;-46
2021/06/19 04:10:12;;;;;;;11.30;2.72;;;22.20;68.40;;;;;;5075571;28;20039;-49
2021/06/19 04:12:38;;;;;;;5.90;2.10;;;22.30;68.30;;;;;;5075289;28;20017;-47
2021/06/19 04:15:05;;;;;;;2.30;1.83;;;22.30;68.20;;;;;;5074000;28;20040;-49
2021/06/19 04:17:31;;;;;;;7.40;2.30;;;22.10;68.80;;;;;;5074107;28;20028;-48
2021/06/19 04:19:58;;;;;;;3.20;1.75;;;22.20;68.70;;;;;;5075241;28;20044;-48
2021/06/19 04:22:23;;;;;;;4.78;2.38;;;22.20;68.60;;;;;;5075076;28;20547;-48
2021/06/19 04:24:49;;;;;;;3.15;2.25;;;22.20;68.50;;;;;;5075381;28;20021;-48
2021/06/19 04:27:20;;;;;;;2.30;1.63;;;22.30;68.50;;;;;;5075078;28;20432;-50
2021/06/19 04:29:47;;;;;;;4.88;1.77;;;22.30;68.60;;;;;;5074964;28;20017;-49
2021/06/19 04:32:14;;;;;;;5.47;2.00;;;22.30;68.50;;;;;;5075221;28;20025;-49
2021/06/19 04:34:40;;;;;;;3.95;2.45;;;22.50;68.10;;;;;;5074861;28;20105;-48
2021/06/19 04:37:10;;;;;;;5.32;2.00;;;22.40;68.30;;;;;;5074817;28;20020;-52
2021/06/19 04:39:44;;;;;;;;;;;22.30;68.30;;;;;;5075156;28;20468;-49
2021/06/19 04:42:14;;;;;;;8.48;2.40;;;22.30;68.60;;;;;;5075016;28;19940;-48
2021/06/19 04:47:25;;;;;;;3.42;2.05;;;22.10;69.20;;;;;;5075193;28;20032;-52
2021/06/19 04:49:54;;;;;;;6.03;2.03;;;22.00;69.70;;;;;;5074543;28;20031;-49
2021/06/19 04:52:23;;;;;;;4.43;1.60;;;22.00;69.10;;;;;;5073065;28;20025;-47
2021/06/19 04:54:49;;;;;;;2.88;2.08;;;22.10;68.80;;;;;;5074792;28;20852;-48
2021/06/19 04:57:15;;;;;;;6.30;2.00;;;22.00;69.20;;;;;;5074921;28;20025;-50
2021/06/19 04:59:40;;;;;;;5.38;2.08;;;22.20;69.10;;;;;;5074283;28;20031;-50
2021/06/19 05:02:06;;;;;;;5.35;2.30;;;22.10;69.00;;;;;;5074994;28;20031;-49
2021/06/19 05:04:32;;;;;;;2.50;1.95;;;22.10;68.80;;;;;;5072976;28;20021;-50
2021/06/19 05:06:58;;;;;;;4.22;2.05;;;22.20;69.00;;;;;;5074346;28;20486;-49
2021/06/19 05:09:23;;;;;;;3.80;2.00;;;22.10;68.80;;;;;;5075054;28;20025;-49
2021/06/19 05:11:49;;;;;;;3.55;1.80;;;22.20;68.60;;;;;;5073034;28;20032;-48
2021/06/19 05:14:15;;;;;;;3.38;1.50;;;22.30;68.30;;;;;;5074326;28;20032;-48
2021/06/19 05:16:40;;;;;;;2.75;2.05;;;22.20;68.70;;;;;;5074348;28;20025;-51
2021/06/19 05:19:06;;;;;;;5.68;3.40;;;22.10;68.80;;;;;;5074105;28;20574;-48
2021/06/19 05:21:32;;;;;;;5.28;1.88;;;22.10;68.90;;;;;;5073687;28;20094;-54
2021/06/19 05:23:58;;;;;;;6.22;2.97;;;22.20;68.30;;;;;;5074204;28;20027;-50
2021/06/19 05:26:23;;;;;;;3.95;1.83;;;22.20;68.40;;;;;;5074261;28;20091;-49
2021/06/19 05:28:49;;;;;;;3.45;1.83;;;22.30;68.30;;;;;;5073897;28;20021;-50
2021/06/19 05:31:15;;;;;;;4.13;1.92;;;22.30;68.30;;;;;;5074327;28;20159;-47
2021/06/19 05:33:41;;;;;;;4.47;2.10;;;22.30;68.30;;;;;;5073767;28;20027;-49
2021/06/19 05:36:07;;;;;;;3.25;2.15;;;22.30;68.30;;;;;;5073796;28;20155;-47
2021/06/19 05:38:32;;;;;;;3.17;2.00;;;22.30;68.80;;;;;;5074140;28;20035;-47
2021/06/19 05:40:58;;;;;;;8.75;2.65;;;22.30;68.70;;;;;;5073707;28;20115;-52
2021/06/19 05:43:24;;;;;;;7.03;2.42;;;22.30;68.80;;;;;;5073709;28;20039;-48
2021/06/19 05:45:52;;;;;;;7.93;2.00;;;22.40;68.90;;;;;;5072469;28;20025;-50
2021/06/19 05:48:18;;;;;;;4.85;2.60;;;22.30;69.20;;;;;;5074115;28;20121;-50
2021/06/19 05:50:44;;;;;;;7.18;2.35;;;22.40;69.30;;;;;;5072166;28;20090;-48
2021/06/19 05:53:10;;;;;;;6.88;3.67;;;22.40;69.00;;;;;;5073675;28;20391;-48
2021/06/19 05:55:36;;;;;;;4.03;2.28;;;22.70;68.50;;;;;;5073572;28;20025;-48
2021/06/19 05:58:01;;;;;;;6.45;2.80;;;22.70;68.10;;;;;;5073561;28;20112;-49
2021/06/19 06:00:28;;;;;;;15.65;2.90;;;22.80;68.00;;;;;;5073541;28;20060;-50
2021/06/19 06:02:53;;;;;;;6.22;2.28;;;22.70;67.90;;;;;;5073921;28;20111;-48
2021/06/19 06:05:19;;;;;;;3.17;1.90;;;22.60;68.00;;;;;;5073337;28;20479;-50
2021/06/19 06:07:45;;;;;;;3.13;2.13;;;22.50;68.20;;;;;;5073526;28;20024;-49
2021/06/19 06:10:11;;;;;;;3.92;1.60;;;22.50;68.20;;;;;;5073349;28;20040;-52
2021/06/19 06:12:37;;;;;;;2.53;2.05;;;22.60;67.80;;;;;;5055438;28;20028;-46
2021/06/19 06:15:04;;;;;;;6.03;1.98;;;22.50;67.90;;;;;;5071958;28;20150;-50
2021/06/19 06:17:29;;;;;;;13.15;2.15;;;22.60;67.80;;;;;;5073040;28;20024;-50
2021/06/19 06:19:55;;;;;;;3.40;2.60;;;22.80;67.30;;;;;;5072877;28;20048;-48
2021/06/19 06:22:21;;;;;;;5.50;2.80;;;23.10;66.30;;;;;;5072888;28;20024;-51
2021/06/19 06:24:46;;;;;;;2.60;1.92;;;23.30;65.60;;;;;;5072945;28;20093;-48
2021/06/19 06:27:12;;;;;;;6.07;3.45;;;23.30;65.30;;;;;;5072940;28;20468;-47
2021/06/19 06:29:37;;;;;;;3.75;2.28;;;23.30;65.40;;;;;;5073454;28;20025;-46
2021/06/19 06:32:04;;;;;;;10.60;3.22;;;23.20;65.20;;;;;;5072935;28;20035;-48
2021/06/19 06:34:29;;;;;;;4.28;2.20;;;23.10;65.60;;;;;;5072993;28;20044;-47
2021/06/19 06:36:55;;;;;;;4.38;2.50;;;23.10;65.70;;;;;;5073054;28;20025;-49
2021/06/19 06:39:21;;;;;;;6.30;2.90;;;23.20;65.70;;;;;;5072807;28;20024;-46
2021/06/19 06:41:47;;;;;;;2.53;2.28;;;23.20;65.20;;;;;;5072703;28;20450;-48
2021/06/19 06:44:12;;;;;;;3.13;2.40;;;23.30;65.30;;;;;;5072952;28;20059;-48
2021/06/19 06:46:38;;;;;;;3.72;2.70;;;23.20;65.20;;;;;;5073193;28;20032;-47
2021/06/19 06:49:04;;;;;;;2.70;2.50;;;23.30;64.70;;;;;;5072779;28;20020;-48
2021/06/19 06:51:33;;;;;;;3.67;2.75;;;23.30;65.00;;;;;;5071561;28;20158;-49
2021/06/19 06:53:58;;;;;;;3.42;2.65;;;23.30;64.60;;;;;;5071915;28;20028;-49
2021/06/19 06:56:24;;;;;;;5.05;4.03;;;23.20;64.80;;;;;;5073021;28;20032;-53
2021/06/19 06:58:50;;;;;;;5.65;3.97;;;23.30;64.90;;;;;;5073357;28;20145;-50
2021/06/19 07:01:16;;;;;;;5.85;3.75;;;23.60;63.90;;;;;;5072797;28;20044;-47
2021/06/19 07:03:42;;;;;;;3.72;3.38;;;23.80;63.70;;;;;;5075442;28;20108;-48
2021/06/19 07:06:07;;;;;;;20.55;4.32;;;23.90;63.00;;;;;;5076788;28;20108;-49
2021/06/19 07:08:33;;;;;;;15.65;4.47;;;23.60;63.50;;;;;;5076750;28;20440;-48
2021/06/19 07:10:59;;;;;;;8.73;3.40;;;23.30;64.50;;;;;;5076270;28;20107;-50
2021/06/19 07:13:24;;;;;;;4.80;3.30;;;23.70;63.50;;;;;;5076381;28;20021;-50
2021/06/19 07:15:50;;;;;;;10.07;5.20;;;23.80;62.90;;;;;;5076679;28;20020;-51
2021/06/19 07:18:16;;;;;;;3.42;3.13;;;24.10;61.60;;;;;;5076511;28;20103;-50
2021/06/19 07:20:42;;;;;;;6.15;3.38;;;23.80;61.00;;;;;;5076094;28;20053;-49
2021/06/19 07:23:07;;;;;;;3.80;3.13;;;23.80;60.60;;;;;;5076307;28;20534;-48
2021/06/19 07:25:33;;;;;;;4.03;3.17;;;24.10;59.90;;;;;;5074767;28;20021;-48
2021/06/19 07:27:59;;;;;;;5.63;2.88;;;24.40;59.10;;;;;;5076169;28;20055;-48
2021/06/19 07:30:26;;;;;;;5.18;3.28;;;24.70;58.30;;;;;;5076265;28;20024;-48
2021/06/19 07:32:53;;;;;;;4.38;2.85;;;24.50;59.00;;;;;;5075022;28;20032;-52
2021/06/19 07:35:19;;;;;;;3.58;2.42;;;25.20;57.40;;;;;;5076236;28;20044;-53
2021/06/19 07:37:44;;;;;;;4.60;2.40;;;25.20;57.50;;;;;;5076443;28;20037;-52
2021/06/19 07:40:11;;;;;;;5.22;2.15;;;25.20;57.10;;;;;;5075152;28;20032;-52
2021/06/19 07:42:40;;;;;;;5.57;2.60;;;25.30;56.80;;;;;;5076146;28;20074;-50
2021/06/19 07:45:07;;;;;;;4.95;2.63;;;25.20;57.10;;;;;;5079262;28;20045;-50
2021/06/19 07:47:34;;;;;;;5.63;2.92;;;24.80;58.20;;;;;;5075221;28;20016;-50
2021/06/19 07:50:00;;;;;;;3.95;2.30;;;25.20;57.40;;;;;;5074943;28;20021;-49
2021/06/19 07:52:27;;;;;;;4.07;2.30;;;25.80;55.20;;;;;;5076429;28;20044;-51
2021/06/19 07:54:53;;;;;;;2.88;2.05;;;26.30;54.40;;;;;;5076909;28;20025;-48
2021/06/19 07:57:18;;;;;;;3.08;1.70;;;26.40;53.50;;;;;;5075657;28;20024;-48
2021/06/19 07:59:44;;;;;;;2.92;1.88;;;26.70;52.00;;;;;;5075367;28;20464;-50
2021/06/19 08:02:10;;;;;;;3.67;1.70;;;26.80;51.70;;;;;;5075601;28;20112;-47
2021/06/19 08:04:36;;;;;;;3.25;1.42;;;27.00;50.70;;;;;;5077487;28;20071;-53
2021/06/19 08:07:05;;;;;;;3.50;1.77;;;27.20;51.40;;;;;;5078550;28;20024;-51
2021/06/19 08:09:31;;;;;;;4.00;1.50;;;26.80;51.80;;;;;;5077848;28;20090;-50
2021/06/19 08:11:58;;;;;;;2.67;1.80;;;26.60;52.30;;;;;;5074927;28;20036;-53
2021/06/19 08:14:24;;;;;;;2.70;1.70;;;27.00;51.20;;;;;;5075005;28;20082;-49
2021/06/19 08:16:53;;;;;;;4.00;1.73;;;27.50;49.90;;;;;;5074479;28;20469;-52
2021/06/19 08:19:19;;;;;;;3.55;2.00;;;26.40;52.60;;;;;;5075008;28;20032;-51
2021/06/19 08:21:45;;;;;;;4.10;1.58;;;26.80;52.60;;;;;;5073812;28;20040;-55
2021/06/19 08:24:11;;;;;;;4.57;1.83;;;26.70;52.30;;;;;;5075285;28;20036;-49
2021/06/19 08:26:37;;;;;;;1.98;1.48;;;27.50;50.90;;;;;;5074225;28;20040;-50
2021/06/19 08:29:05;;;;;;;6.43;2.05;;;27.30;49.50;;;;;;5075132;28;20039;-53
2021/06/19 08:31:38;;;;;;;1.83;1.58;;;27.20;48.80;;;;;;5073807;28;20102;-53
2021/06/19 08:34:05;;;;;;;3.10;1.80;;;27.20;48.10;;;;;;5074720;28;20025;-51
2021/06/19 08:36:31;;;;;;;1.77;1.52;;;26.50;50.40;;;;;;5074632;28;20029;-52
2021/06/19 08:38:57;;;;;;;3.63;1.88;;;27.30;48.90;;;;;;5073592;28;20090;-48
2021/06/19 08:41:23;;;;;;;2.55;1.80;;;27.50;48.70;;;;;;5074461;28;20024;-50
2021/06/19 08:43:49;;;;;;;4.70;2.00;;;27.80;48.10;;;;;;5074318;28;20032;-53
2021/06/19 08:46:21;;;;;;;1.77;1.65;;;27.80;47.30;;;;;;5074765;28;20495;-53
2021/06/19 08:48:49;;;;;;;4.65;1.60;;;28.50;46.00;;;;;;5072844;28;20427;-53
2021/06/19 08:51:17;;;;;;;2.97;1.50;;;27.80;46.70;;;;;;5074611;28;20099;-49
2021/06/19 08:53:43;;;;;;;2.85;1.48;;;27.50;47.90;;;;;;5074822;28;20086;-51
2021/06/19 08:56:09;;;;;;;2.17;1.67;;;27.30;47.50;;;;;;5074474;28;20464;-52
2021/06/19 08:58:34;;;;;;;2.10;1.58;;;27.70;46.90;;;;;;5074705;28;20029;-52
2021/06/19 09:01:00;;;;;;;2.50;1.50;;;27.80;46.70;;;;;;5056192;28;20029;-53
2021/06/19 09:03:27;;;;;;;3.65;1.90;;;28.50;45.60;;;;;;5073017;28;20059;-54
2021/06/19 09:06:15;;;;;;;3.22;1.60;;;29.30;42.60;;;;;;5074783;28;20065;-52
2021/06/19 09:08:58;;;;;;;1.42;1.13;;;29.20;41.70;;;;;;5074098;28;20024;-49
2021/06/19 09:11:30;;;;;;;3.67;1.60;;;29.00;42.60;;;;;;5074612;28;20050;-53
2021/06/19 09:14:08;;;;;;;2.47;2.03;;;29.00;42.80;;;;;;5074158;28;20031;-52
2021/06/19 09:16:36;;;;;;;4.03;1.58;;;29.50;42.60;;;;;;5072904;28;20507;-50
2021/06/19 09:19:02;;;;;;;2.80;1.70;;;29.20;43.40;;;;;;5074320;28;20025;-52
2021/06/19 09:21:34;;;;;;;4.63;2.58;;;30.00;41.50;;;;;;5073618;28;20037;-50
2021/06/19 09:24:00;;;;;;;4.55;2.08;;;29.40;42.00;;;;;;5074353;28;20020;-49
2021/06/19 09:26:31;;;;;;;1.77;1.55;;;29.50;41.10;;;;;;5073511;28;20020;-53
2021/06/19 09:29:15;;;;;;;3.90;1.33;;;29.30;42.10;;;;;;5073633;28;20029;-49
2021/06/19 09:31:43;;;;;;;2.00;1.60;;;28.90;41.70;;;;;;5073902;28;20028;-50
2021/06/19 09:34:26;;;;;;;2.38;1.50;;;29.50;39.90;;;;;;5073678;28;20016;-50
2021/06/19 09:37:08;;;;;;;6.07;1.88;;;28.80;42.00;;;;;;5073568;28;20025;-49
2021/06/19 09:39:36;;;;;;;3.88;1.70;;;29.60;40.50;;;;;;5073787;28;20048;-49
2021/06/19 09:42:06;;;;;;;2.22;1.35;;;29.70;40.10;;;;;;5071675;28;20480;-52
2021/06/19 09:44:51;;;;;;;3.50;1.50;;;30.30;38.40;;;;;;5073811;28;20025;-50
2021/06/19 09:47:18;;;;;;;3.15;1.35;;;30.80;37.50;;;;;;5073297;28;20043;-50
2021/06/19 09:49:49;;;;;;;2.28;1.52;;;30.80;37.30;;;;;;5072027;28;20024;-49
2021/06/19 09:52:26;;;;;;;3.35;1.63;;;31.00;37.40;;;;;;5074028;28;20417;-51
2021/06/19 09:54:58;;;;;;;2.28;1.60;;;30.30;37.90;;;;;;5073194;28;20032;-52
2021/06/19 09:57:41;;;;;;;1.98;1.40;;;31.30;36.40;;;;;;5073998;28;20023;-50
2021/06/19 10:00:12;;;;;;;2.80;1.23;;;31.30;36.50;;;;;;5055709;28;20031;-52
2021/06/19 10:02:39;;;;;;;5.90;1.55;;;30.60;38.10;;;;;;5073368;28;20069;-49
2021/06/19 10:05:06;;;;;;;3.42;1.38;;;30.00;38.60;;;;;;5071914;28;20029;-52
2021/06/19 10:07:35;;;;;;;3.30;1.80;;;29.80;39.40;;;;;;5073156;28;20024;-50
2021/06/19 10:10:07;;;;;;;2.15;1.65;;;30.80;37.00;;;;;;5073315;28;20020;-51
2021/06/19 10:12:34;;;;;;;1.77;1.60;;;31.50;35.80;;;;;;5073148;28;20357;-50
2021/06/19 10:15:08;;;;;;;6.47;1.70;;;31.20;36.30;;;;;;5073140;28;20490;-50
2021/06/19 10:17:42;;;;;;;3.17;1.80;;;31.30;36.50;;;;;;5073313;28;20029;-49
2021/06/19 10:20:13;;;;;;;2.92;1.83;;;31.10;37.40;;;;;;5072355;28;20045;-53
2021/06/19 10:22:40;;;;;;;3.28;1.55;;;31.10;36.70;;;;;;5071648;28;20103;-51
2021/06/19 10:25:10;;;;;;;2.15;1.50;;;30.50;37.60;;;;;;5072729;28;20017;-52
2021/06/19 10:27:39;;;;;;;4.57;1.50;;;31.80;35.70;;;;;;5072906;28;20407;-53
2021/06/19 10:30:07;;;;;;;15.43;1.77;;;31.30;36.50;;;;;;5073800;28;20487;-52
2021/06/19 10:32:50;;;;;;;4.15;1.52;;;31.50;36.20;;;;;;5072455;28;20111;-50
2021/06/19 10:35:18;;;;;;;3.08;1.40;;;31.40;35.90;;;;;;5072775;28;20105;-52
2021/06/19 10:37:48;;;;;;;1.80;1.38;;;30.40;37.50;;;;;;5074322;28;20020;-49
2021/06/19 10:40:28;;;;;;;3.00;1.48;;;29.60;39.50;;;;;;5076642;28;20068;-49
2021/06/19 10:43:18;;;;;;;5.78;2.13;;;30.20;38.40;;;;;;5076898;28;20416;-52
2021/06/19 10:45:45;;;;;;;6.22;1.10;;;30.30;37.70;;;;;;5076328;28;20017;-52
2021/06/19 10:48:16;;;;;;;2.85;1.48;;;30.30;37.00;;;;;;5076680;28;20024;-51
2021/06/19 10:50:47;;;;;;;5.13;1.75;;;31.00;36.40;;;;;;5058810;28;20025;-51
2021/06/19 10:53:22;;;;;;;1.40;1.30;;;31.40;35.30;;;;;;5074918;28;20047;-50
2021/06/19 10:55:53;;;;;;;1.55;1.17;;;31.10;36.10;;;;;;5076765;28;20119;-55
2021/06/19 10:58:23;;;;;;;3.65;1.48;;;31.70;34.90;;;;;;5076249;28;20040;-51
2021/06/19 11:00:51;;;;;;;2.17;1.17;;;31.10;36.50;;;;;;5076234;28;20028;-49
2021/06/19 11:03:18;;;;;;;3.33;1.58;;;30.90;36.70;;;;;;5075988;28;20028;-51
2021/06/19 11:05:50;;;;;;;6.00;1.40;;;30.50;36.70;;;;;;5076184;28;20494;-51
2021/06/19 11:08:16;;;;;;;3.33;1.60;;;30.80;36.30;;;;;;5076144;28;20099;-49
2021/06/19 11:10:48;;;;;;;2.75;1.40;;;30.80;36.10;;;;;;5076755;28;20036;-52
2021/06/19 11:13:32;;;;;;;2.88;1.67;;;31.00;36.10;;;;;;5076210;28;20456;-48
2021/06/19 11:16:00;;;;;;;1.95;1.33;;;31.70;34.80;;;;;;5076186;28;20021;-49
2021/06/19 11:18:48;;;;;;;1.90;1.48;;;31.30;34.90;;;;;;5076042;28;20032;-48
2021/06/19 11:21:19;;;;;;;3.28;1.20;;;30.80;35.00;;;;;;5075757;28;20119;-52
2021/06/19 11:31:52;;;;;;;2.63;1.25;;;30.70;35.30;;;;;;5132633;27;20654;-49
2021/06/19 11:34:39;;;;;;;2.35;1.45;;;31.00;34.60;;;;;;5112982;28;20114;-49
2021/06/19 11:37:05;;;;;;;2.15;1.27;;;30.80;35.40;;;;;;5131486;28;20106;-50
2021/06/19 11:39:35;;;;;;;3.47;1.35;;;31.80;33.00;;;;;;5117690;28;20050;-48
2021/06/19 11:42:02;;;;;;;2.10;1.63;;;32.40;32.40;;;;;;5122343;28;20021;-37
2021/06/19 11:44:34;;;;;;;3.05;1.30;;;31.60;34.40;;;;;;5112844;28;20399;-38
2021/06/19 11:47:07;;;;;;;1.73;1.20;;;32.20;32.80;;;;;;5131083;28;20026;-37
2021/06/19 11:49:35;;;;;;;1.20;1.10;;;32.00;33.00;;;;;;5112428;28;20085;-38
2021/06/19 11:52:03;;;;;;;1.30;1.20;;;32.70;32.40;;;;;;5131044;28;20023;-37
2021/06/19 11:54:29;;;;;;;3.72;1.75;;;32.50;31.80;;;;;;5113466;28;20023;-40
2021/06/19 11:56:56;;;;;;;4.40;1.27;;;30.00;36.50;;;;;;5112648;28;20074;-38
2021/06/19 11:59:23;;;;;;;1.52;1.05;;;31.30;35.00;;;;;;5130928;28;20466;-37
2021/06/19 12:01:50;;;;;;;2.20;0.98;;;31.80;33.80;;;;;;5130620;28;20469;-37
2021/06/19 12:04:21;;;;;;;2.05;1.10;;;31.20;34.10;;;;;;5130677;28;20102;-38
2021/06/19 12:06:52;;;;;;;3.25;1.00;;;32.10;32.80;;;;;;5131421;28;20032;-37
2021/06/19 12:09:22;;;;;;;1.50;1.30;;;33.00;30.70;;;;;;5130626;28;20055;-37
2021/06/19 12:11:49;;;;;;;2.65;1.10;;;32.40;31.40;;;;;;5130305;28;20386;-39
2021/06/19 12:14:15;;;;;;;1.67;0.90;;;32.30;31.90;;;;;;5130520;28;20032;-36
2021/06/19 12:16:40;;;;;;;1.00;1.00;;;31.00;34.10;;;;;;5130593;28;20076;-37
2021/06/19 12:19:06;;;;;;;1.70;0.93;;;32.60;32.30;;;;;;5130371;28;20382;-37
2021/06/19 12:21:36;;;;;;;1.35;1.17;;;33.20;31.60;;;;;;5119370;28;20047;-37
2021/06/19 12:24:03;;;;;;;;;;;33.10;31.20;;;;;;5110797;28;20562;-41
2021/06/19 12:26:32;;;;;;;1.20;1.00;;;32.70;32.20;;;;;;5110673;28;20314;-39
2021/06/19 12:28:58;;;;;;;4.82;1.33;;;32.30;32.10;;;;;;5110046;28;20103;-38
2021/06/19 12:31:28;;;;;;;4.47;1.05;;;33.20;30.70;;;;;;5110230;28;20127;-38
2021/06/19 12:33:59;;;;;;;1.13;1.02;;;33.70;30.10;;;;;;5092247;28;20023;-37
2021/06/19 12:36:26;;;;;;;1.63;1.00;;;33.00;31.60;;;;;;5110595;28;20016;-38
2021/06/19 12:38:52;;;;;;;1.85;1.05;;;33.10;32.10;;;;;;5092376;28;20047;-38
2021/06/19 12:41:18;;;;;;;10.95;1.20;;;33.80;31.10;;;;;;5107148;28;20038;-37
2021/06/19 12:43:49;;;;;;;3.30;1.67;;;32.80;32.60;;;;;;5096027;28;20027;-38
2021/06/19 12:46:19;;;;;;;3.40;1.27;;;32.10;33.80;;;;;;5096320;28;20020;-38
2021/06/19 12:48:46;;;;;;;3.30;1.40;;;32.50;33.20;;;;;;5096416;28;20020;-38
2021/06/19 12:51:33;;;;;;;1.98;1.30;;;32.70;32.70;;;;;;5096381;28;20379;-37
2021/06/19 12:54:24;;;;;;;1.23;1.13;;;33.30;32.00;;;;;;5096909;28;20122;-38
2021/06/19 12:56:53;;;;;;;1.77;1.33;;;33.60;31.00;;;;;;5096999;28;20039;-38
2021/06/19 12:59:19;;;;;;;2.08;1.13;;;32.30;33.40;;;;;;5096250;28;20028;-37